createdAt,value
2022-12-13T00:02:52.105Z,100066.19
2022-12-13T00:08:14.426Z,100057.89
2022-12-13T00:13:36.723Z,100078.38
2022-12-13T00:19:02.025Z,100076.59
2022-12-13T00:24:24.832Z,100069.73
2022-12-13T00:29:47.216Z,100090.04
2022-12-13T00:35:09.565Z,100087.52
2022-12-13T00:40:31.897Z,100103.20
2022-12-13T00:45:54.455Z,100108.39
2022-12-13T00:51:18.877Z,100100.48
2022-12-13T00:56:44.177Z,100103.18
2022-12-13T01:02:06.463Z,100108.48
2022-12-13T01:07:28.779Z,100107.86
2022-12-13T01:12:51.618Z,100106.48
2022-12-13T01:18:13.878Z,100102.43
2022-12-13T01:23:36.692Z,100110.47
2022-12-13T01:28:59.507Z,100099.20
2022-12-13T01:34:26.502Z,100110.89
2022-12-13T01:39:48.227Z,100105.52
2022-12-13T01:45:26.978Z,100104.66
2022-12-13T01:50:54.105Z,100093.52
2022-12-13T01:56:24.110Z,100103.36
2022-12-13T02:01:47.356Z,100098.34
2022-12-13T02:07:11.015Z,100122.16
2022-12-13T02:12:36.353Z,100117.20
2022-12-13T02:18:45.811Z,100131.27
2022-12-13T02:24:28.037Z,100125.09
2022-12-13T02:30:27.612Z,100122.52
2022-12-13T02:36:02.269Z,100124.23
2022-12-13T02:41:57.257Z,100124.05
2022-12-13T02:47:29.296Z,100118.54
2022-12-13T02:52:52.940Z,100130.67
2022-12-13T02:58:18.093Z,100136.84
2022-12-13T03:03:54.179Z,100128.20
2022-12-13T03:10:07.884Z,100137.20
2022-12-13T03:15:58.457Z,100139.16
2022-12-13T03:21:25.988Z,100133.48
2022-12-13T03:26:50.025Z,100129.55
2022-12-13T03:32:13.743Z,100131.70
2022-12-13T03:37:36.893Z,100141.64
2022-12-13T03:43:00.932Z,100147.11
2022-12-13T03:48:23.811Z,100136.92
2022-12-13T03:53:47.333Z,100137.19
2022-12-13T03:59:09.560Z,100139.41
2022-12-13T04:04:32.943Z,100144.47
2022-12-13T04:09:56.140Z,100144.66
2022-12-13T04:15:20.049Z,100135.98
2022-12-13T04:20:42.912Z,100143.01
2022-12-13T04:26:06.594Z,100134.43
2022-12-13T04:31:31.477Z,100149.52
2022-12-13T04:36:55.169Z,100157.44
2022-12-13T04:42:18.690Z,100140.94
2022-12-13T04:47:42.085Z,100146.95
2022-12-13T04:53:04.483Z,100151.19
2022-12-13T04:58:28.344Z,100167.65
2022-12-13T05:03:52.598Z,100157.14
2022-12-13T05:09:16.627Z,100159.72
2022-12-13T05:14:39.844Z,100165.73
2022-12-13T05:20:02.113Z,100166.48
2022-12-13T05:25:25.592Z,100168.20
2022-12-13T05:30:49.999Z,100162.09
2022-12-13T05:36:12.490Z,100164.88
2022-12-13T05:41:39.411Z,100163.20
2022-12-13T05:47:01.936Z,100153.66
2022-12-13T05:52:30.747Z,100164.97
2022-12-13T05:57:53.217Z,100179.05
2022-12-13T06:03:18.093Z,100178.21
2022-12-13T06:08:40.883Z,100188.09
2022-12-13T06:14:04.157Z,100189.86
2022-12-13T06:19:29.782Z,100196.02
2022-12-13T06:24:52.550Z,100189.09
2022-12-13T06:30:15.693Z,100187.42
2022-12-13T06:35:41.267Z,100199.73
2022-12-13T06:41:01.880Z,100198.89
2022-12-13T06:46:24.682Z,100198.84
2022-12-13T06:51:47.101Z,100208.47
2022-12-13T06:57:09.569Z,100229.42
2022-12-13T07:02:33.101Z,100219.74
2022-12-13T07:07:55.748Z,100228.48
2022-12-13T07:13:18.300Z,100226.63
2022-12-13T07:18:41.558Z,100235.30
2022-12-13T07:24:04.639Z,100236.16
2022-12-13T07:29:26.894Z,100233.41
2022-12-13T07:34:49.166Z,100246.48
2022-12-13T07:40:14.085Z,100251.73
2022-12-13T07:45:38.903Z,100262.09
2022-12-13T07:51:04.025Z,100265.53
2022-12-13T07:56:29.460Z,100270.69
2022-12-13T08:01:54.540Z,100260.99
2022-12-13T08:07:21.869Z,100260.84
2022-12-13T08:12:46.044Z,100275.75
2022-12-13T08:18:10.866Z,100263.23
2022-12-13T08:23:34.669Z,100270.27
2022-12-13T08:28:59.066Z,100277.22
2022-12-13T08:34:23.810Z,100280.62
2022-12-13T08:39:48.596Z,100285.83
2022-12-13T08:45:14.483Z,100288.41
2022-12-13T08:50:38.476Z,100289.88
2022-12-13T08:56:04.792Z,100291.74
2022-12-13T09:01:30.127Z,100296.09
2022-12-13T09:06:55.105Z,100297.47
2022-12-13T09:12:29.503Z,100301.96
2022-12-13T09:17:45.876Z,100309.73
2022-12-13T09:23:14.156Z,100311.22
2022-12-13T09:28:38.318Z,100320.11
2022-12-13T09:34:03.701Z,100315.61
2022-12-13T09:39:28.662Z,100318.00
2022-12-13T09:45:03.998Z,100309.04
2022-12-13T09:50:42.486Z,100318.23
2022-12-13T09:56:11.266Z,100314.78
2022-12-13T10:01:32.587Z,100327.05
2022-12-13T10:07:00.329Z,100315.66
2022-12-13T10:12:25.797Z,100315.86
2022-12-13T10:17:55.642Z,100317.58
2022-12-13T10:23:52.914Z,100336.96
2022-12-13T10:28:47.854Z,100327.84
2022-12-13T10:34:17.035Z,100337.13
2022-12-13T10:39:57.952Z,100333.48
2022-12-13T10:45:33.703Z,100332.95
2022-12-13T10:51:06.696Z,100342.99
2022-12-13T10:56:40.580Z,100342.89
2022-12-13T11:02:06.692Z,100352.11
2022-12-13T11:07:47.379Z,100332.88
2022-12-13T11:13:13.800Z,100333.81
2022-12-13T11:18:44.032Z,100321.81
2022-12-13T11:24:13.564Z,100338.19
2022-12-13T11:29:42.889Z,100338.58
2022-12-13T11:35:29.619Z,100345.72
2022-12-13T11:40:59.726Z,100335.03
2022-12-13T11:46:33.406Z,100345.16
2022-12-13T11:52:08.997Z,100347.10
2022-12-13T11:57:40.646Z,100351.75
2022-12-13T12:03:09.544Z,100362.44
2022-12-13T12:08:40.827Z,100363.36
2022-12-13T12:14:23.862Z,100364.73
2022-12-13T12:19:56.196Z,100363.53
2022-12-13T12:25:49.644Z,100375.63
2022-12-13T12:31:51.023Z,100388.73
2022-12-13T12:37:31.245Z,100368.30
2022-12-13T12:43:23.056Z,100378.47
2022-12-13T12:49:17.939Z,100370.98
2022-12-13T12:55:16.061Z,100382.77
2022-12-13T13:00:55.843Z,100394.38
2022-12-13T13:06:37.656Z,100390.04
2022-12-13T13:12:29.559Z,100394.33
2022-12-13T13:17:50.543Z,100395.68
2022-12-13T13:23:39.373Z,100401.86
2022-12-13T13:28:49.498Z,100405.62
2022-12-13T13:34:15.849Z,100411.14
2022-12-13T13:40:08.442Z,100425.21
2022-12-13T13:45:59.990Z,100422.58
2022-12-13T13:58:11.113Z,100425.47
2022-12-13T14:04:04.133Z,100435.29
2022-12-13T14:09:56.973Z,100436.55
2022-12-13T14:15:49.744Z,100448.08
2022-12-13T14:21:51.211Z,100455.20
2022-12-13T14:27:23.413Z,100454.34
2022-12-13T14:32:51.023Z,100466.67
2022-12-13T14:38:33.721Z,100468.39
2022-12-13T14:44:15.936Z,100465.58
2022-12-13T14:49:42.070Z,100465.95
2022-12-13T14:55:32.218Z,100461.52
2022-12-13T15:00:58.518Z,100472.03
2022-12-13T15:06:23.618Z,100471.22
2022-12-13T15:11:51.955Z,100477.37
2022-12-13T15:17:17.367Z,100482.68
2022-12-13T15:22:42.224Z,100489.66
2022-12-13T15:28:06.931Z,100483.69
2022-12-13T15:33:41.042Z,100485.59
2022-12-13T15:39:13.752Z,100491.11
2022-12-13T15:44:50.694Z,100503.66
2022-12-13T15:50:19.613Z,100498.57
2022-12-13T15:55:47.297Z,100505.03
2022-12-13T16:01:11.114Z,100502.53
2022-12-13T16:06:38.763Z,100501.70
2022-12-13T16:12:07.153Z,100517.63
2022-12-13T16:17:37.933Z,100514.14
2022-12-13T16:23:08.751Z,100514.14
2022-12-13T16:28:31.223Z,100515.95
2022-12-13T16:33:56.276Z,100522.97
2022-12-13T16:39:22.122Z,100534.48
2022-12-13T16:45:32.471Z,100535.43
2022-12-13T16:50:26.590Z,100534.53
2022-12-13T16:55:58.642Z,100533.82
2022-12-13T17:01:16.808Z,100537.45
2022-12-13T17:06:43.814Z,100532.24
2022-12-13T17:12:07.507Z,100541.20
2022-12-13T17:17:35.614Z,100539.84
2022-12-13T17:23:01.607Z,100543.56
2022-12-13T17:28:26.327Z,100537.80
2022-12-13T17:33:50.882Z,100548.32
2022-12-13T17:39:15.490Z,100549.93
2022-12-13T17:44:39.258Z,100550.19
2022-12-13T17:50:03.920Z,100550.33
2022-12-13T17:55:28.479Z,100559.67
2022-12-13T18:00:53.023Z,100561.16
2022-12-13T18:06:20.034Z,100567.09
2022-12-13T18:11:44.597Z,100561.40
2022-12-13T18:17:09.952Z,100578.61
2022-12-13T18:22:41.225Z,100583.82
2022-12-13T18:28:02.144Z,100587.50
2022-12-13T18:33:26.660Z,100591.42
2022-12-13T18:38:53.214Z,100581.41
2022-12-13T18:44:19.079Z,100593.95
2022-12-13T18:49:43.568Z,100594.23
2022-12-13T18:55:08.021Z,100593.31
2022-12-13T19:00:30.670Z,100604.92
2022-12-13T19:05:54.017Z,100597.98
2022-12-13T19:11:19.399Z,100603.31
2022-12-13T19:16:43.502Z,100606.95
2022-12-13T19:22:07.352Z,100607.94
2022-12-13T19:27:29.686Z,100613.44
2022-12-13T19:32:52.751Z,100608.20
2022-12-13T19:38:15.717Z,100608.19
2022-12-13T19:43:37.976Z,100605.66
2022-12-13T19:49:00.664Z,100612.73
2022-12-13T19:54:24.571Z,100603.23
2022-12-13T19:59:47.330Z,100606.72
2022-12-13T20:05:10.308Z,100613.78
2022-12-13T20:10:32.490Z,100602.48
2022-12-13T20:15:56.440Z,100599.00
2022-12-13T20:21:27.396Z,100608.67
2022-12-13T20:26:51.051Z,100607.79
2022-12-13T20:32:13.610Z,100613.82
2022-12-13T20:37:35.879Z,100607.66
2022-12-13T20:42:58.206Z,100609.44
2022-12-13T20:48:20.508Z,100611.09
2022-12-13T20:53:51.677Z,100606.69
2022-12-13T20:59:17.506Z,100608.50
2022-12-13T21:04:40.434Z,100609.35
2022-12-13T21:10:02.645Z,100615.53
2022-12-13T21:15:25.499Z,100618.25
2022-12-13T21:20:47.922Z,100625.28
2022-12-13T21:26:10.934Z,100630.60
2022-12-13T21:31:34.125Z,100627.05
2022-12-13T21:37:02.285Z,100630.60
2022-12-13T21:42:25.061Z,100628.94
2022-12-13T21:47:47.249Z,100636.69
2022-12-13T21:53:09.665Z,100643.72
2022-12-13T21:58:49.785Z,100644.62
2022-12-13T22:04:12.036Z,100649.02
2022-12-13T22:09:34.869Z,100641.31
2022-12-13T22:14:59.926Z,100641.33
2022-12-13T22:20:24.847Z,100645.68
2022-12-13T22:25:48.896Z,100642.24
2022-12-13T22:31:14.422Z,100636.10
2022-12-13T22:36:38.253Z,100638.70
2022-12-13T22:42:01.072Z,100630.97
2022-12-13T22:47:23.398Z,100627.48
2022-12-13T22:52:45.766Z,100631.05
2022-12-13T22:58:07.982Z,100628.54
2022-12-13T23:03:30.401Z,100634.66
2022-12-13T23:08:55.581Z,100635.50
2022-12-13T23:14:22.034Z,100632.90
2022-12-13T23:19:50.827Z,100628.62
2022-12-13T23:25:08.950Z,100630.37
2022-12-13T23:30:31.836Z,100634.66
2022-12-13T23:35:55.645Z,100639.89
2022-12-13T23:41:33.839Z,100633.84
2022-12-13T23:46:55.690Z,100631.27
2022-12-13T23:52:17.954Z,100631.30
2022-12-13T23:57:40.172Z,100630.43
